Time;durP1;ratioP1;P1;durP2;ratioP2;P2;SDS_P1;SDS_P2;PMS_P1;PMS_P2;Temp;Humidity;BMP_temperature;BMP_pressure;BME280_temperature;BME280_humidity;BME280_pressure;Samples;Min_cycle;Max_cycle;Signal;HPM_P1;HPM_P2
2021/12/13 03:45:32;;;;;;;10.18;6.75;;;6.40;98.60;;;;;;5647951;24;20293;-83
2021/12/13 03:48:00;;;;;;;8.70;6.47;;;6.40;98.90;;;;;;4655815;30;20223;-83
2021/12/13 03:50:37;;;;;;;9.32;7.57;;;6.40;99.00;;;;;;4663366;30;20038;-83
2021/12/13 03:53:12;;;;;;;7.88;6.40;;;6.50;99.20;;;;;;4639375;30;20349;-84
2021/12/13 03:55:40;;;;;;;11.73;7.05;;;6.50;99.30;;;;;;4659781;30;20085;-84
2021/12/13 03:58:11;;;;;;;8.98;7.05;;;6.50;99.50;;;;;;4662140;30;20030;-84
2021/12/13 04:00:45;;;;;;;13.98;8.23;;;6.50;99.50;;;;;;4645098;30;20034;-84
2021/12/13 04:03:15;;;;;;;13.18;7.88;;;6.50;99.50;;;;;;4650208;30;20068;-84
2021/12/13 04:05:41;;;;;;;9.35;6.90;;;6.50;99.90;;;;;;4664056;30;20058;-84
2021/12/13 04:08:11;;;;;;;12.82;8.38;;;6.40;99.90;;;;;;4650949;30;20026;-84
2021/12/13 04:10:44;;;;;;;9.48;7.38;;;6.40;99.90;;;;;;4645179;30;20043;-84
2021/12/13 04:13:14;;;;;;;9.50;7.10;;;6.40;99.90;;;;;;4645034;30;20090;-84
2021/12/13 04:16:18;;;;;;;9.95;7.40;;;6.40;99.90;;;;;;4644828;30;20057;-84
2021/12/13 04:21:23;;;;;;;10.98;7.60;;;6.30;99.90;;;;;;4653960;30;20094;-84
2021/12/13 04:23:54;;;;;;;11.05;6.97;;;6.40;99.90;;;;;;4660228;30;20330;-84
2021/12/13 04:26:22;;;;;;;8.70;6.30;;;6.40;99.90;;;;;;4647117;30;20043;-84
2021/12/13 04:28:51;;;;;;;7.95;5.95;;;6.30;99.90;;;;;;4638356;30;20058;-83
2021/12/13 04:31:20;;;;;;;6.95;5.63;;;6.30;99.90;;;;;;4662242;30;20034;-84
2021/12/13 04:33:53;;;;;;;10.07;6.28;;;6.40;99.90;;;;;;4648264;30;20041;-84
2021/12/13 04:36:29;;;;;;;8.73;5.75;;;6.40;99.90;;;;;;4660505;30;20050;-84
2021/12/13 04:39:06;;;;;;;11.10;5.72;;;6.30;99.90;;;;;;4640332;30;20073;-84
2021/12/13 04:41:47;;;;;;;8.80;6.65;;;6.40;99.90;;;;;;4645700;30;20042;-84
2021/12/13 04:44:39;;;;;;;10.32;6.65;;;6.40;99.90;;;;;;4648051;30;20118;-85
2021/12/13 04:47:11;;;;;;;8.93;5.50;;;6.40;99.90;;;;;;4634868;30;20063;-84
2021/12/13 04:49:41;;;;;;;7.03;5.38;;;6.40;99.90;;;;;;4630625;31;20758;-84
2021/12/13 04:52:20;;;;;;;6.07;5.03;;;6.40;99.90;;;;;;4628185;30;20062;-84
2021/12/13 04:54:52;;;;;;;5.82;4.32;;;6.40;99.90;;;;;;4647119;30;20037;-84
2021/12/13 04:57:19;;;;;;;6.03;4.32;;;6.40;99.90;;;;;;4642670;30;20069;-84
2021/12/13 04:59:54;;;;;;;6.68;4.32;;;6.30;99.90;;;;;;4637786;30;20054;-84
2021/12/13 05:02:20;;;;;;;5.60;4.05;;;6.40;99.90;;;;;;4635620;30;20059;-85
2021/12/13 05:04:57;;;;;;;5.63;4.30;;;6.40;99.90;;;;;;4640603;30;20322;-85
2021/12/13 05:07:25;;;;;;;5.85;4.25;;;6.40;99.90;;;;;;4652662;30;20089;-85
2021/12/13 05:09:52;;;;;;;7.90;4.22;;;6.40;99.90;;;;;;4630263;30;20042;-83
2021/12/13 05:12:22;;;;;;;6.10;4.07;;;6.40;99.90;;;;;;4621701;30;20118;-84
2021/12/13 05:14:56;;;;;;;7.85;5.18;;;6.30;99.90;;;;;;4638145;30;20038;-84
2021/12/13 05:17:34;;;;;;;8.52;5.75;;;6.30;99.90;;;;;;4639750;30;20081;-84
2021/12/13 05:20:21;;;;;;;8.45;5.90;;;6.20;99.90;;;;;;4632499;30;20030;-84
2021/12/13 05:22:57;;;;;;;8.77;5.47;;;6.20;99.90;;;;;;4633265;30;20049;-83
2021/12/13 05:25:33;;;;;;;8.55;4.93;;;6.20;99.90;;;;;;4650521;30;20298;-84
2021/12/13 05:28:06;;;;;;;6.70;5.60;;;6.30;99.90;;;;;;4636011;30;20042;-85
2021/12/13 05:30:34;;;;;;;7.97;6.57;;;6.20;99.90;;;;;;4633315;30;20113;-84
2021/12/13 05:33:05;;;;;;;9.20;6.65;;;6.20;99.90;;;;;;4628371;31;20154;-84
2021/12/13 05:35:36;;;;;;;10.73;7.13;;;6.20;99.90;;;;;;4633073;30;20109;-83
2021/12/13 05:38:10;;;;;;;10.63;7.00;;;6.20;99.90;;;;;;4635072;30;20113;-84
2021/12/13 05:40:41;;;;;;;11.18;7.18;;;6.10;99.90;;;;;;4638037;30;20038;-85
2021/12/13 05:43:29;;;;;;;11.18;7.80;;;6.20;99.90;;;;;;4649750;30;20062;-85
2021/12/13 05:46:23;;;;;;;10.18;7.93;;;6.20;99.90;;;;;;4636109;30;20102;-85
2021/12/13 05:48:57;;;;;;;10.55;7.82;;;6.20;99.90;;;;;;4643228;30;20146;-84
2021/12/13 05:51:30;;;;;;;10.73;7.70;;;6.20;99.90;;;;;;4633360;30;20150;-85
2021/12/13 05:54:04;;;;;;;10.07;7.75;;;6.20;99.90;;;;;;4625751;30;20034;-86
2021/12/13 05:56:42;;;;;;;11.13;7.47;;;6.20;99.90;;;;;;4629015;30;20042;-85
2021/12/13 05:59:39;;;;;;;12.90;7.57;;;6.20;99.90;;;;;;4625286;30;20096;-85
2021/12/13 06:02:36;;;;;;;10.75;6.82;;;6.20;99.90;;;;;;4561608;31;20059;-86
2021/12/13 06:05:19;;;;;;;8.75;6.35;;;6.20;99.90;;;;;;4580390;31;20049;-86
2021/12/13 06:07:54;;;;;;;8.23;6.45;;;6.20;99.90;;;;;;4575727;31;20252;-87
2021/12/13 06:10:21;;;;;;;12.27;6.72;;;6.20;99.90;;;;;;4575583;31;20468;-86
2021/12/13 06:12:59;;;;;;;7.38;5.97;;;6.10;99.90;;;;;;4569444;31;20048;-86
2021/12/13 06:15:27;;;;;;;9.27;6.20;;;6.10;99.90;;;;;;4578075;31;20071;-85
2021/12/13 06:18:10;;;;;;;9.00;5.43;;;6.10;99.90;;;;;;4580506;31;20048;-86
2021/12/13 06:21:02;;;;;;;11.88;5.65;;;6.10;99.90;;;;;;4574287;31;20045;-85
2021/12/13 06:23:33;;;;;;;12.95;5.97;;;6.10;99.90;;;;;;4575749;31;20047;-86
2021/12/13 06:26:00;;;;;;;10.23;5.20;;;6.10;99.90;;;;;;4562350;31;20341;-86
2021/12/13 06:28:39;;;;;;;7.60;5.38;;;6.10;99.90;;;;;;4581389;31;20047;-86
2021/12/13 06:31:11;;;;;;;8.98;4.85;;;6.10;99.90;;;;;;4558006;31;20067;-86
2021/12/13 06:33:49;;;;;;;6.75;5.15;;;6.10;99.90;;;;;;4543512;31;20157;-87
2021/12/13 06:36:33;;;;;;;5.47;4.47;;;6.10;99.90;;;;;;4546110;31;20046;-86
2021/12/13 06:39:14;;;;;;;8.23;5.47;;;6.10;99.90;;;;;;4574229;31;20058;-85
2021/12/13 06:41:46;;;;;;;7.10;5.22;;;6.10;99.90;;;;;;4594783;31;20051;-87
2021/12/13 06:44:37;;;;;;;7.63;5.35;;;6.20;99.90;;;;;;4606855;31;20046;-87
2021/12/13 06:47:09;;;;;;;7.70;5.13;;;6.20;99.90;;;;;;4578029;31;20045;-87
2021/12/13 06:49:52;;;;;;;9.93;5.10;;;6.10;99.90;;;;;;4601807;31;20028;-87
2021/12/13 06:52:37;;;;;;;7.15;4.95;;;6.20;99.90;;;;;;4605747;31;20076;-88
2021/12/13 06:55:10;;;;;;;6.80;4.95;;;6.20;99.90;;;;;;4593484;31;20155;-88
2021/12/13 06:58:00;;;;;;;6.00;4.80;;;6.10;99.90;;;;;;4592320;31;20043;-88
2021/12/13 07:00:37;;;;;;;6.57;5.43;;;6.20;99.90;;;;;;4606868;31;20335;-88
2021/12/13 07:03:42;;;;;;;;;;;;;;;;;;;;;
2021/12/13 07:06:19;;;;;;;11.55;5.63;;;6.20;99.90;;;;;;4574639;31;20052;-88
2021/12/13 07:09:37;;;;;;;6.90;4.97;;;6.20;99.90;;;;;;4574173;31;20048;-88
2021/12/13 07:12:32;;;;;;;7.57;5.05;;;6.20;99.90;;;;;;4511259;31;20369;-88
2021/12/13 07:15:24;;;;;;;7.30;5.55;;;6.30;99.90;;;;;;4458621;31;20130;-88
2021/12/13 07:18:38;;;;;;;8.77;5.63;;;6.30;99.90;;;;;;4502533;31;20096;-88
2021/12/13 07:21:46;;;;;;;8.23;6.70;;;6.30;99.90;;;;;;4445035;32;20053;-89
2021/12/13 07:24:17;;;;;;;7.75;6.38;;;6.40;99.90;;;;;;4431275;32;20076;-89
2021/12/13 07:26:58;;;;;;;12.13;6.85;;;6.40;99.90;;;;;;4433339;32;20402;-89
2021/12/13 07:30:00;;;;;;;9.05;7.25;;;6.40;99.90;;;;;;4390388;32;20049;-89
2021/12/13 07:32:28;;;;;;;12.57;8.00;;;6.40;99.90;;;;;;4408725;32;20046;-89
2021/12/13 07:35:17;;;;;;;12.80;8.52;;;6.40;99.90;;;;;;4416209;32;20081;-89
2021/12/13 07:38:06;;;;;;;10.30;7.97;;;6.50;99.90;;;;;;4404232;32;20077;-89
2021/12/13 07:40:43;;;;;;;9.95;8.35;;;6.40;99.90;;;;;;4394049;32;20290;-88
2021/12/13 07:43:38;;;;;;;13.75;9.32;;;6.50;99.90;;;;;;4393854;32;20364;-88
2021/12/13 07:46:22;;;;;;;12.15;9.40;;;6.60;99.90;;;;;;4371980;32;20107;-88
2021/12/13 07:48:58;;;;;;;15.73;9.13;;;6.50;99.90;;;;;;4403795;32;20415;-88
2021/12/13 07:51:33;;;;;;;12.27;9.45;;;6.50;99.90;;;;;;4443355;32;20171;-88
2021/12/13 07:54:00;;;;;;;13.75;9.25;;;6.50;99.90;;;;;;4463643;32;20036;-89
2021/12/13 07:56:33;;;;;;;14.73;10.05;;;6.60;99.90;;;;;;4463274;32;20099;-88
2021/12/13 07:59:26;;;;;;;15.73;9.23;;;6.60;99.90;;;;;;4457844;32;20095;-88
2021/12/13 08:02:08;;;;;;;14.18;10.23;;;6.50;99.90;;;;;;4435005;32;20052;-88
2021/12/13 08:04:56;;;;;;;13.70;9.95;;;6.50;99.90;;;;;;4459013;32;20128;-88
2021/12/13 08:07:26;;;;;;;14.90;9.65;;;6.60;99.90;;;;;;4445646;32;20053;-88
2021/12/13 08:09:58;;;;;;;13.40;9.95;;;6.60;99.90;;;;;;4463149;32;20045;-88
2021/12/13 08:12:38;;;;;;;11.30;8.90;;;6.60;99.90;;;;;;4457675;32;20060;-88
2021/12/13 08:15:19;;;;;;;11.32;8.90;;;6.70;99.90;;;;;;4488946;31;20046;-88
2021/12/13 08:18:00;;;;;;;11.48;9.25;;;6.70;99.90;;;;;;4505642;31;20043;-88
2021/12/13 08:20:29;;;;;;;13.13;8.68;;;6.80;99.90;;;;;;4537031;31;20052;-87
2021/12/13 08:22:59;;;;;;;12.65;8.48;;;6.80;99.90;;;;;;4565523;31;20033;-87
2021/12/13 08:25:29;;;;;;;11.10;7.97;;;6.80;99.90;;;;;;4547698;31;20045;-88
2021/12/13 08:27:59;;;;;;;10.30;8.05;;;6.90;99.90;;;;;;4572188;31;20068;-88
2021/12/13 08:30:27;;;;;;;12.35;7.20;;;7.00;99.90;;;;;;4590181;31;20041;-88
2021/12/13 08:33:06;;;;;;;6.07;5.15;;;7.00;99.90;;;;;;4588660;31;20033;-87
2021/12/13 08:35:54;;;;;;;8.70;5.47;;;7.00;99.90;;;;;;4578583;31;20039;-88
2021/12/13 08:38:39;;;;;;;6.18;4.82;;;7.00;99.90;;;;;;4576073;31;20040;-87
2021/12/13 08:41:30;;;;;;;6.30;4.10;;;7.00;99.90;;;;;;4585739;31;20036;-87
2021/12/13 08:44:11;;;;;;;5.22;3.92;;;7.00;99.90;;;;;;4578014;31;20328;-87
2021/12/13 08:46:54;;;;;;;4.38;3.95;;;7.00;99.90;;;;;;4572744;31;20056;-87
2021/12/13 08:49:50;;;;;;;4.22;3.58;;;7.00;99.90;;;;;;4596017;31;20104;-86
2021/12/13 08:52:24;;;;;;;5.57;4.05;;;7.00;99.90;;;;;;4535502;31;20092;-86
2021/12/13 08:54:55;;;;;;;4.88;3.40;;;7.00;99.90;;;;;;4551134;31;20045;-87
2021/12/13 08:57:50;;;;;;;6.70;3.53;;;7.00;99.90;;;;;;4530099;31;20338;-87
2021/12/13 09:00:37;;;;;;;4.43;2.72;;;7.10;99.90;;;;;;4520529;31;20255;-87
2021/12/13 09:03:24;;;;;;;4.97;2.88;;;7.00;99.90;;;;;;4520466;31;20074;-87
2021/12/13 09:05:56;;;;;;;5.28;2.90;;;7.10;99.90;;;;;;4506668;31;20087;-86
2021/12/13 09:08:53;;;;;;;3.88;2.95;;;7.10;99.90;;;;;;4507540;31;20042;-88
2021/12/13 09:11:45;;;;;;;8.15;3.25;;;7.10;99.90;;;;;;4509819;31;20074;-87
2021/12/13 09:14:20;;;;;;;3.60;3.00;;;7.10;99.90;;;;;;4493181;31;20054;-87
2021/12/13 09:17:07;;;;;;;5.35;2.80;;;7.20;99.90;;;;;;4506991;31;20057;-87
2021/12/13 09:19:41;;;;;;;3.08;2.78;;;7.30;99.90;;;;;;4498308;31;20091;-87
2021/12/13 09:22:13;;;;;;;6.05;2.78;;;7.30;99.90;;;;;;4494408;31;20196;-87
2021/12/13 09:24:50;;;;;;;3.50;2.50;;;7.40;99.90;;;;;;4510243;31;20129;-86
2021/12/13 09:27:45;;;;;;;4.05;3.15;;;7.40;99.90;;;;;;4508660;31;20046;-87
2021/12/13 09:30:33;;;;;;;3.03;2.40;;;7.50;99.90;;;;;;4519596;31;20087;-87
2021/12/13 09:33:22;;;;;;;5.75;3.00;;;7.60;99.90;;;;;;4497628;31;20275;-87
2021/12/13 09:36:02;;;;;;;5.30;2.90;;;7.60;99.90;;;;;;4503999;31;20091;-87
2021/12/13 09:38:31;;;;;;;4.20;3.00;;;7.70;99.90;;;;;;4545940;31;20116;-86
2021/12/13 09:41:08;;;;;;;5.82;3.70;;;7.70;99.90;;;;;;4531992;31;20049;-86
2021/12/13 09:43:49;;;;;;;6.13;4.28;;;7.80;99.90;;;;;;4557048;31;20415;-86
2021/12/13 09:46:20;;;;;;;4.35;3.47;;;7.80;99.90;;;;;;4543455;31;20065;-86
2021/12/13 09:48:51;;;;;;;3.75;3.25;;;7.90;99.90;;;;;;4546591;31;20124;-86
2021/12/13 09:51:22;;;;;;;4.43;3.42;;;7.90;99.90;;;;;;4545699;31;20042;-86
2021/12/13 09:53:51;;;;;;;7.32;4.05;;;8.00;99.90;;;;;;4536031;31;20029;-86
2021/12/13 09:56:19;;;;;;;6.18;3.95;;;8.10;99.90;;;;;;4534028;31;20114;-85
2021/12/13 09:58:59;;;;;;;6.85;3.38;;;8.20;99.90;;;;;;4558748;31;20049;-85
2021/12/13 10:01:30;;;;;;;3.80;3.30;;;8.30;99.90;;;;;;4544454;31;20074;-86
2021/12/13 10:04:07;;;;;;;4.93;3.40;;;8.30;99.90;;;;;;4545279;31;20041;-85
2021/12/13 10:06:46;;;;;;;5.10;3.45;;;8.40;99.90;;;;;;4547223;31;20061;-85
2021/12/13 10:09:26;;;;;;;7.15;4.03;;;8.50;99.90;;;;;;4561198;31;20041;-85
2021/12/13 10:12:01;;;;;;;4.22;3.03;;;8.50;99.60;;;;;;4545535;31;20060;-86
2021/12/13 10:14:35;;;;;;;5.93;3.53;;;8.50;99.50;;;;;;4545839;31;20041;-85
2021/12/13 10:17:08;;;;;;;6.50;4.20;;;8.40;99.30;;;;;;4541472;31;20116;-85
2021/12/13 10:19:45;;;;;;;4.60;3.65;;;8.40;99.70;;;;;;4544488;31;20402;-85
2021/12/13 10:22:15;;;;;;;4.28;3.10;;;8.50;99.30;;;;;;4560440;31;20041;-85
2021/12/13 10:25:25;;;;;;;4.97;2.97;;;8.50;99.50;;;;;;4579208;31;20036;-85
2021/12/13 10:27:51;;;;;;;4.30;2.90;;;8.70;99.10;;;;;;4542628;31;20042;-85
2021/12/13 10:30:25;;;;;;;4.75;2.92;;;8.70;99.00;;;;;;4528584;31;20345;-85
2021/12/13 10:32:53;;;;;;;3.38;2.80;;;8.70;98.40;;;;;;4530264;31;20091;-85
2021/12/13 10:35:26;;;;;;;4.55;2.72;;;8.50;98.80;;;;;;4541169;31;20034;-84
2021/12/13 10:37:55;;;;;;;4.15;3.00;;;8.50;98.80;;;;;;4539405;31;20038;-84
2021/12/13 10:40:30;;;;;;;4.95;2.90;;;8.40;99.00;;;;;;4525626;31;20098;-84
2021/12/13 10:43:05;;;;;;;6.45;2.60;;;8.50;98.80;;;;;;4526961;31;20045;-84
2021/12/13 10:45:39;;;;;;;4.35;2.72;;;8.40;99.00;;;;;;4555316;31;20345;-84
2021/12/13 10:48:09;;;;;;;4.03;2.42;;;8.50;99.20;;;;;;4554114;31;20053;-84
2021/12/13 10:50:41;;;;;;;5.05;2.33;;;8.50;99.00;;;;;;4530981;31;20186;-84
2021/12/13 10:53:11;;;;;;;6.90;3.05;;;8.50;98.90;;;;;;4541658;31;20045;-84
2021/12/13 10:55:44;;;;;;;5.10;2.60;;;8.50;98.90;;;;;;4554597;31;20073;-84
2021/12/13 10:58:15;;;;;;;2.85;2.42;;;8.40;99.10;;;;;;4528274;31;20057;-84
2021/12/13 11:00:46;;;;;;;5.22;2.40;;;8.40;98.90;;;;;;4554733;31;20060;-83
2021/12/13 11:03:21;;;;;;;3.42;2.40;;;8.40;99.20;;;;;;4540817;31;20088;-83
2021/12/13 11:05:48;;;;;;;2.38;2.10;;;8.40;99.00;;;;;;4615837;30;20179;-83
2021/12/13 11:08:16;;;;;;;3.17;2.22;;;8.40;99.10;;;;;;4605641;30;20050;-83
2021/12/13 11:10:58;;;;;;;3.10;1.98;;;8.40;99.30;;;;;;4637748;30;20103;-83
2021/12/13 11:13:30;;;;;;;4.53;2.35;;;8.40;99.30;;;;;;4633932;30;20042;-83
2021/12/13 11:16:15;;;;;;;4.70;2.55;;;8.50;99.30;;;;;;4636346;30;20035;-82
2021/12/13 11:18:44;;;;;;;3.03;2.20;;;8.60;99.20;;;;;;4620394;31;20226;-82
2021/12/13 11:21:33;;;;;;;2.63;2.30;;;8.60;99.30;;;;;;4635111;30;20475;-82
2021/12/13 11:23:59;;;;;;;3.50;2.75;;;8.50;99.40;;;;;;4639936;30;20123;-82
2021/12/13 11:26:33;;;;;;;3.50;2.40;;;8.40;99.80;;;;;;4613478;30;20058;-82
2021/12/13 11:29:00;;;;;;;4.75;3.00;;;8.40;99.90;;;;;;4626420;31;20201;-82
2021/12/13 11:31:29;;;;;;;6.82;3.00;;;8.40;99.90;;;;;;4625807;30;20245;-82
2021/12/13 11:34:01;;;;;;;6.35;3.03;;;8.40;99.90;;;;;;4635645;30;20095;-82
2021/12/13 11:36:49;;;;;;;4.13;3.03;;;8.40;99.90;;;;;;4626332;30;20039;-82
2021/12/13 11:39:17;;;;;;;3.38;2.53;;;8.40;99.90;;;;;;4629822;30;20043;-82
2021/12/13 11:42:11;;;;;;;5.05;3.53;;;8.30;99.90;;;;;;4622219;31;20102;-82
2021/12/13 11:44:58;;;;;;;6.45;3.03;;;8.30;99.90;;;;;;4639952;30;20086;-82
2021/12/13 11:47:30;;;;;;;5.93;3.25;;;8.40;99.90;;;;;;4627191;30;20250;-83
2021/12/13 11:50:33;;;;;;;4.75;2.90;;;8.30;99.90;;;;;;4635357;30;20115;-81
2021/12/13 11:53:19;;;;;;;5.25;2.88;;;8.30;99.90;;;;;;4652743;30;20031;-81
2021/12/13 11:56:30;;;;;;;3.08;2.42;;;8.20;99.90;;;;;;4637422;30;20031;-82
2021/12/13 11:59:25;;;;;;;3.58;2.38;;;8.20;99.90;;;;;;4630075;30;20066;-81
2021/12/13 12:02:04;;;;;;;4.35;2.92;;;8.20;99.90;;;;;;4619919;31;20039;-82
2021/12/13 12:05:11;;;;;;;2.97;2.25;;;8.20;99.90;;;;;;4636888;30;20100;-81
2021/12/13 12:07:43;;;;;;;3.55;2.58;;;8.10;99.90;;;;;;4530102;31;20377;-81
2021/12/13 12:10:45;;;;;;;4.13;2.60;;;8.10;99.90;;;;;;4545462;31;20042;-81
2021/12/13 12:13:53;;;;;;;4.25;2.92;;;8.20;99.90;;;;;;4527795;31;20345;-81
2021/12/13 12:16:23;;;;;;;4.18;3.05;;;8.10;99.90;;;;;;4534152;31;20052;-81
2021/12/13 12:18:51;;;;;;;4.32;2.80;;;8.20;99.90;;;;;;4531150;31;20346;-81
2021/12/13 12:21:41;;;;;;;4.03;2.75;;;8.20;99.90;;;;;;4530223;31;20105;-82
2021/12/13 12:24:09;;;;;;;4.90;3.53;;;8.20;99.90;;;;;;4530629;31;20276;-81
2021/12/13 12:26:36;;;;;;;53.30;27.65;;;8.20;99.90;;;;;;4545928;31;20049;-82
2021/12/13 12:29:09;;;;;;;3.92;3.20;;;8.10;99.90;;;;;;4530918;31;20056;-81
2021/12/13 12:31:39;;;;;;;8.40;3.50;;;8.10;99.90;;;;;;4531869;31;20045;-81
2021/12/13 12:34:05;;;;;;;4.50;3.53;;;8.00;99.90;;;;;;4542020;31;20042;-82
2021/12/13 12:36:57;;;;;;;4.65;3.13;;;8.00;99.90;;;;;;4543898;31;20041;-82
2021/12/13 12:39:38;;;;;;;5.22;3.58;;;8.00;99.90;;;;;;4634292;30;20059;-82
2021/12/13 12:42:32;;;;;;;4.53;3.10;;;7.90;99.90;;;;;;4640187;30;20035;-82
2021/12/13 12:45:00;;;;;;;4.68;3.50;;;7.90;99.90;;;;;;4635769;30;20050;-82
2021/12/13 12:48:00;;;;;;;5.47;3.10;;;8.00;99.90;;;;;;4639393;30;20239;-82
2021/12/13 12:50:28;;;;;;;4.50;3.08;;;8.00;99.90;;;;;;4642281;30;20146;-82
2021/12/13 12:53:07;;;;;;;4.35;2.88;;;7.90;99.90;;;;;;4631080;31;20079;-83
2021/12/13 12:55:41;;;;;;;4.25;3.15;;;7.90;99.90;;;;;;4638117;30;20326;-83
2021/12/13 12:58:11;;;;;;;6.03;3.58;;;7.90;99.90;;;;;;4638273;30;20043;-82
2021/12/13 13:00:40;;;;;;;5.72;3.67;;;7.90;99.90;;;;;;4624883;30;20159;-83
2021/12/13 13:03:06;;;;;;;10.18;3.83;;;7.90;99.90;;;;;;4627986;31;20234;-83
2021/12/13 13:05:32;;;;;;;8.27;3.25;;;7.90;99.90;;;;;;4615171;30;20043;-83
2021/12/13 13:07:58;;;;;;;4.18;3.17;;;7.90;99.90;;;;;;4625760;31;20066;-82
2021/12/13 13:12:59;;;;;;;3.58;2.92;;;8.00;99.90;;;;;;4630974;30;20355;-82
2021/12/13 13:15:30;;;;;;;3.67;3.13;;;8.00;99.90;;;;;;4627101;30;20035;-82
2021/12/13 13:18:04;;;;;;;5.60;3.67;;;8.00;99.90;;;;;;4617136;31;20027;-82
2021/12/13 13:20:54;;;;;;;4.10;3.10;;;8.00;99.90;;;;;;4631084;30;20291;-82
2021/12/13 13:23:26;;;;;;;3.55;2.72;;;8.00;99.90;;;;;;4638000;30;20123;-82
2021/12/13 13:26:00;;;;;;;6.93;3.00;;;7.90;99.90;;;;;;4630290;30;20043;-82
2021/12/13 13:28:53;;;;;;;4.35;2.72;;;7.90;99.90;;;;;;4645791;30;20095;-82
2021/12/13 13:31:42;;;;;;;4.57;3.53;;;7.90;99.90;;;;;;4628962;30;20042;-82
2021/12/13 13:34:11;;;;;;;5.45;2.92;;;7.90;99.90;;;;;;4635858;30;20047;-82
2021/12/13 13:36:43;;;;;;;4.82;2.97;;;7.90;99.90;;;;;;4630791;30;20244;-82
2021/12/13 13:39:22;;;;;;;3.60;3.10;;;7.80;99.90;;;;;;4629502;31;20349;-82
2021/12/13 13:42:03;;;;;;;5.85;2.95;;;7.80;99.90;;;;;;4642671;30;20055;-82
2021/12/13 13:44:29;;;;;;;5.85;2.90;;;7.80;99.90;;;;;;4622386;30;20039;-82
2021/12/13 13:47:01;;;;;;;3.63;2.80;;;7.80;99.90;;;;;;4620922;30;20078;-82
2021/12/13 13:49:27;;;;;;;4.57;3.20;;;7.80;99.90;;;;;;4628791;30;20267;-83
2021/12/13 13:51:53;;;;;;;5.35;3.00;;;7.90;99.90;;;;;;4624134;30;20114;-83
2021/12/13 13:54:19;;;;;;;6.05;3.10;;;7.80;99.90;;;;;;4621269;30;20040;-83
2021/12/13 13:56:47;;;;;;;3.50;2.90;;;7.90;99.90;;;;;;4622676;30;20070;-83
2021/12/13 13:59:20;;;;;;;3.83;3.00;;;7.80;99.90;;;;;;4624862;30;20051;-83
2021/12/13 14:02:07;;;;;;;3.42;2.90;;;7.80;99.90;;;;;;4621195;30;20043;-82
2021/12/13 14:04:35;;;;;;;3.28;2.58;;;7.90;99.90;;;;;;4626043;30;20090;-82
2021/12/13 14:07:08;;;;;;;4.85;3.10;;;7.90;99.90;;;;;;4636166;30;20050;-82
2021/12/13 14:09:41;;;;;;;4.72;2.72;;;7.90;99.90;;;;;;4641114;30;20039;-83
2021/12/13 14:12:13;;;;;;;3.95;3.05;;;7.90;99.90;;;;;;4621008;31;20394;-82
2021/12/13 14:14:42;;;;;;;15.48;3.58;;;7.90;99.90;;;;;;4639338;30;20073;-83
2021/12/13 14:17:09;;;;;;;5.38;2.85;;;7.90;99.90;;;;;;4641656;30;20047;-83
2021/12/13 14:19:49;;;;;;;5.57;3.58;;;7.90;99.90;;;;;;4624084;30;20118;-83
2021/12/13 14:22:15;;;;;;;5.50;3.20;;;7.90;99.90;;;;;;4634121;30;20035;-83
2021/12/13 14:24:47;;;;;;;5.57;3.20;;;7.90;99.90;;;;;;4635354;30;20295;-83
2021/12/13 14:27:16;;;;;;;4.25;3.20;;;8.00;99.90;;;;;;4629125;30;20065;-82
2021/12/13 14:29:43;;;;;;;9.38;3.30;;;8.00;99.90;;;;;;4641832;30;20035;-82
2021/12/13 14:32:11;;;;;;;5.50;3.85;;;7.90;99.90;;;;;;4626200;31;20050;-82
2021/12/13 14:34:38;;;;;;;5.80;3.13;;;7.90;99.90;;;;;;4624610;30;20039;-81
2021/12/13 14:37:04;;;;;;;3.70;2.60;;;7.90;99.90;;;;;;4634851;30;20354;-81
2021/12/13 14:39:35;;;;;;;4.85;3.33;;;7.80;99.90;;;;;;4635148;30;20126;-82
2021/12/13 14:42:05;;;;;;;7.00;3.58;;;7.80;99.90;;;;;;4631593;30;20346;-82
2021/12/13 14:44:48;;;;;;;3.45;3.03;;;7.80;99.90;;;;;;4630804;30;20086;-82
2021/12/13 14:47:20;;;;;;;4.80;3.28;;;7.80;99.90;;;;;;4639198;30;20066;-82
2021/12/13 14:49:50;;;;;;;4.53;3.38;;;7.80;99.90;;;;;;4618797;31;20039;-82
2021/12/13 14:52:31;;;;;;;5.60;3.10;;;7.70;99.90;;;;;;4629689;30;20198;-82
2021/12/13 14:55:05;;;;;;;5.70;4.10;;;7.70;99.90;;;;;;4626349;31;20095;-82
2021/12/13 14:57:33;;;;;;;4.82;3.60;;;7.70;99.90;;;;;;4634233;30;20031;-81
2021/12/13 15:00:09;;;;;;;6.05;3.53;;;7.70;99.90;;;;;;4633546;30;20036;-82
2021/12/13 15:02:43;;;;;;;5.63;3.77;;;7.70;99.90;;;;;;4626081;30;20046;-82
2021/12/13 15:05:12;;;;;;;7.22;3.88;;;7.70;99.90;;;;;;4632166;30;20565;-81
2021/12/13 15:07:40;;;;;;;5.25;4.20;;;7.70;99.90;;;;;;4642953;30;20035;-81
2021/12/13 15:10:15;;;;;;;7.00;4.40;;;7.60;99.90;;;;;;4643113;30;20121;-81
2021/12/13 15:12:44;;;;;;;7.05;4.45;;;7.60;99.90;;;;;;4630653;30;20331;-81
2021/12/13 15:15:22;;;;;;;7.13;4.88;;;7.70;99.90;;;;;;4634183;30;20239;-82
2021/12/13 15:18:00;;;;;;;7.05;4.93;;;7.70;99.90;;;;;;4628826;30;20050;-81
2021/12/13 15:20:30;;;;;;;9.98;4.57;;;7.70;99.90;;;;;;4639681;30;20075;-81
2021/12/13 15:22:59;;;;;;;7.35;4.55;;;7.70;99.90;;;;;;4639404;30;20426;-81
2021/12/13 15:25:35;;;;;;;6.25;5.10;;;7.70;99.90;;;;;;4641605;30;20046;-81
2021/12/13 15:28:03;;;;;;;6.00;4.43;;;7.70;99.90;;;;;;4635760;30;20328;-81
2021/12/13 15:30:29;;;;;;;5.53;4.38;;;7.70;99.90;;;;;;4640739;30;20042;-81
2021/12/13 15:33:00;;;;;;;5.90;4.68;;;7.70;99.90;;;;;;4627153;30;20035;-81
2021/12/13 15:35:34;;;;;;;5.80;4.40;;;7.70;99.90;;;;;;4635480;30;20265;-81
2021/12/13 15:38:03;;;;;;;6.25;4.32;;;7.70;99.90;;;;;;4639230;30;20456;-81
2021/12/13 15:40:44;;;;;;;7.10;4.55;;;7.60;99.90;;;;;;4622910;30;20082;-81
2021/12/13 15:43:12;;;;;;;6.53;4.82;;;7.70;99.90;;;;;;4636473;30;20072;-81
2021/12/13 15:45:49;;;;;;;6.47;5.15;;;7.70;99.90;;;;;;4638556;30;20031;-81
2021/12/13 15:51:06;;;;;;;10.88;5.55;;;7.70;99.90;;;;;;4650843;30;20078;-81
2021/12/13 15:53:33;;;;;;;7.53;4.53;;;7.70;99.90;;;;;;4628759;30;20247;-81
2021/12/13 15:56:05;;;;;;;6.55;4.82;;;7.70;99.90;;;;;;4628926;30;20239;-81
2021/12/13 15:58:36;;;;;;;5.60;4.38;;;7.60;99.90;;;;;;4639239;30;20039;-81
2021/12/13 16:01:07;;;;;;;11.90;5.00;;;7.60;99.90;;;;;;4621820;31;20365;-82
2021/12/13 16:03:34;;;;;;;7.10;5.03;;;7.60;99.90;;;;;;4629304;30;20035;-81
2021/12/13 16:06:01;;;;;;;6.18;4.72;;;7.60;99.90;;;;;;4641106;30;20059;-81
2021/12/13 16:08:46;;;;;;;;;;;7.50;99.90;;;;;;4614437;30;20224;-81
2021/12/13 16:11:26;;;;;;;9.35;4.75;;;7.40;99.90;;;;;;4637033;30;19972;-81
2021/12/13 16:13:56;;;;;;;7.57;5.97;;;7.40;99.90;;;;;;4637721;30;20390;-82
2021/12/13 16:16:29;;;;;;;7.35;5.25;;;7.40;99.90;;;;;;4622454;30;20049;-82
2021/12/13 16:18:56;;;;;;;7.65;5.03;;;7.40;99.90;;;;;;4636636;30;20098;-82
2021/12/13 16:21:32;;;;;;;8.27;5.88;;;7.40;99.90;;;;;;4629967;30;20039;-81
2021/12/13 16:24:08;;;;;;;7.40;5.80;;;7.40;99.90;;;;;;4622564;31;20130;-82
2021/12/13 16:26:41;;;;;;;10.63;7.05;;;7.40;99.90;;;;;;4621095;30;20375;-83
2021/12/13 16:29:10;;;;;;;8.05;5.93;;;7.40;99.90;;;;;;4628217;31;20042;-81
2021/12/13 16:31:38;;;;;;;5.97;4.88;;;7.40;99.90;;;;;;4621999;31;20042;-81
2021/12/13 16:34:10;;;;;;;8.13;5.72;;;7.30;99.90;;;;;;4625794;31;20036;-80
2021/12/13 16:36:46;;;;;;;10.13;5.90;;;7.30;99.90;;;;;;4624364;30;20037;-81
2021/12/13 16:39:16;;;;;;;8.70;5.82;;;7.30;99.90;;;;;;4626014;30;20036;-82
2021/12/13 16:41:45;;;;;;;8.35;6.20;;;7.30;99.90;;;;;;4637301;30;20239;-81
2021/12/13 16:44:15;;;;;;;9.88;5.80;;;7.30;99.90;;;;;;4637892;30;20066;-82
2021/12/13 16:46:44;;;;;;;10.50;6.85;;;7.30;99.90;;;;;;4632151;30;20243;-81
2021/12/13 16:49:23;;;;;;;9.85;6.60;;;7.20;99.90;;;;;;4622332;31;20226;-81
2021/12/13 16:51:58;;;;;;;12.45;6.82;;;7.20;99.90;;;;;;4629360;30;20039;-81
2021/12/13 16:54:29;;;;;;;9.10;6.10;;;7.20;99.90;;;;;;4625278;30;20059;-81
2021/12/13 16:57:04;;;;;;;13.63;6.55;;;7.20;99.90;;;;;;4624155;31;20043;-82
2021/12/13 16:59:35;;;;;;;10.05;6.78;;;7.20;99.90;;;;;;4632853;30;20331;-81
2021/12/13 17:02:01;;;;;;;9.48;6.72;;;7.20;99.90;;;;;;4634790;30;20122;-81
2021/12/13 17:04:37;;;;;;;9.80;7.27;;;7.10;99.90;;;;;;4635701;30;20067;-81
2021/12/13 17:07:15;;;;;;;9.65;6.90;;;7.20;99.90;;;;;;4651833;30;20062;-81
2021/12/13 17:10:05;;;;;;;9.57;6.97;;;7.20;99.90;;;;;;4638856;30;20035;-81
2021/12/13 17:13:13;;;;;;;11.07;7.30;;;7.30;99.90;;;;;;4641618;30;20035;-81
2021/12/13 17:15:53;;;;;;;10.98;7.72;;;7.30;99.90;;;;;;4577247;31;20205;-82
2021/12/13 17:18:30;;;;;;;11.60;7.55;;;7.30;99.90;;;;;;4562697;31;20099;-82
2021/12/13 17:21:04;;;;;;;11.88;7.88;;;7.30;99.90;;;;;;4560309;31;20047;-82
2021/12/13 17:23:41;;;;;;;11.48;8.25;;;7.40;99.90;;;;;;4587580;31;20088;-81
2021/12/13 17:27:03;;;;;;;11.82;8.57;;;7.40;99.90;;;;;;4574208;31;20344;-82
2021/12/13 17:29:46;;;;;;;11.63;8.82;;;7.50;99.90;;;;;;4503585;31;20054;-82
2021/12/13 17:32:16;;;;;;;11.57;8.75;;;7.50;99.90;;;;;;4490767;31;21274;-81
2021/12/13 17:34:53;;;;;;;12.45;8.93;;;7.50;99.90;;;;;;4505400;31;20043;-81
2021/12/13 17:37:25;;;;;;;11.48;8.57;;;7.60;99.90;;;;;;4494553;31;20107;-81